createdAt,value
2019-05-10T00:00:35.402Z,79.39
2019-05-10T00:03:22.688Z,79.15
2019-05-10T00:06:09.948Z,79.35
2019-05-10T00:08:47.668Z,79.21
2019-05-10T00:11:40.887Z,78.91
2019-05-10T00:14:29.425Z,77.51
2019-05-10T00:17:00.931Z,78.22
2019-05-10T00:19:30.764Z,78.79
2019-05-10T00:22:00.345Z,79.03
2019-05-10T00:24:30.068Z,78.96
2019-05-10T00:26:59.595Z,78.83
2019-05-10T00:29:29.247Z,79.02
2019-05-10T00:31:59.275Z,79.07
2019-05-10T00:34:28.961Z,78.17
2019-05-10T00:36:58.627Z,76.97
2019-05-10T00:39:28.310Z,77.11
2019-05-10T00:41:57.840Z,76.90
2019-05-10T00:44:27.709Z,75.71
2019-05-10T00:46:57.419Z,75.56
2019-05-10T00:49:27.072Z,76.60
2019-05-10T00:51:56.695Z,76.38
2019-05-10T00:54:26.679Z,76.91
2019-05-10T00:56:56.434Z,77.28
2019-05-10T00:59:26.051Z,77.42
2019-05-10T01:01:55.638Z,77.67
2019-05-10T01:04:25.149Z,77.36
2019-05-10T01:06:56.500Z,77.28
2019-05-10T01:09:26.017Z,76.71
2019-05-10T01:11:55.543Z,77.20
2019-05-10T01:14:25.060Z,77.29
2019-05-10T01:16:54.677Z,77.37
2019-05-10T01:19:24.205Z,77.00
2019-05-10T01:21:53.701Z,76.90
2019-05-10T01:24:23.237Z,76.12
2019-05-10T01:26:52.884Z,76.04
2019-05-10T01:29:22.435Z,76.25
2019-05-10T01:31:52.009Z,76.10
2019-05-10T01:34:21.739Z,75.86
2019-05-10T01:36:51.349Z,76.27
2019-05-10T01:39:21.227Z,77.64
2019-05-10T01:41:50.810Z,78.36
2019-05-10T01:44:20.504Z,79.00
2019-05-10T01:46:50.223Z,79.62
2019-05-10T01:49:19.819Z,79.02
2019-05-10T01:52:08.734Z,79.36
2019-05-10T01:54:39.896Z,78.30
2019-05-10T01:57:09.415Z,77.95
2019-05-10T01:59:39.049Z,78.04
2019-05-10T02:02:08.708Z,78.10
2019-05-10T02:04:38.248Z,78.01
2019-05-10T02:07:07.922Z,77.49
2019-05-10T02:09:37.720Z,77.48
2019-05-10T02:12:07.310Z,77.58
2019-05-10T02:14:36.909Z,77.48
2019-05-10T02:17:06.406Z,77.99
2019-05-10T02:19:35.943Z,77.96
2019-05-10T02:22:05.765Z,78.03
2019-05-10T02:24:35.268Z,78.22
2019-05-10T02:27:04.850Z,78.31
2019-05-10T02:29:34.587Z,78.28
2019-05-10T02:32:05.333Z,78.13
2019-05-10T02:34:34.870Z,77.36
2019-05-10T02:37:04.642Z,76.25
2019-05-10T02:39:34.556Z,76.67
2019-05-10T02:42:04.228Z,76.52
2019-05-10T02:44:34.236Z,76.79
2019-05-10T02:47:03.816Z,76.45
2019-05-10T02:49:33.455Z,76.11
2019-05-10T02:52:03.090Z,76.26
2019-05-10T02:54:32.648Z,76.28
2019-05-10T02:57:03.669Z,76.08
2019-05-10T02:59:35.677Z,75.95
2019-05-10T03:02:07.334Z,75.77
2019-05-10T03:04:37.971Z,76.24
2019-05-10T03:07:07.956Z,76.63
2019-05-10T03:09:37.575Z,76.40
2019-05-10T03:12:23.852Z,76.83
2019-05-10T03:14:57.081Z,76.92
2019-05-10T03:17:29.409Z,77.38
2019-05-10T03:20:01.187Z,77.79
2019-05-10T03:22:36.146Z,77.91
2019-05-10T03:25:07.269Z,78.43
2019-05-10T03:27:36.916Z,78.90
2019-05-10T03:30:06.902Z,78.82
2019-05-10T03:32:36.545Z,79.06
2019-05-10T03:35:08.265Z,79.15
2019-05-10T03:37:38.802Z,79.65
2019-05-10T03:40:09.954Z,79.30
2019-05-10T03:42:39.561Z,79.12
2019-05-10T03:45:10.285Z,79.14
2019-05-10T03:47:39.819Z,78.90
2019-05-10T03:50:09.971Z,78.65
2019-05-10T03:52:39.999Z,78.47
2019-05-10T03:55:09.922Z,78.18
2019-05-10T03:57:39.521Z,79.12
2019-05-10T04:00:12.619Z,77.94
2019-05-10T04:02:42.222Z,76.87
2019-05-10T04:05:12.876Z,76.34
2019-05-10T04:07:42.666Z,74.73
2019-05-10T04:10:12.767Z,75.58
2019-05-10T04:12:42.425Z,76.25
2019-05-10T04:15:12.418Z,75.88
2019-05-10T04:17:42.026Z,75.14
2019-05-10T04:20:11.923Z,75.59
2019-05-10T04:22:41.486Z,76.54
2019-05-10T04:25:11.347Z,77.05
2019-05-10T04:27:41.377Z,77.16
2019-05-10T04:30:12.672Z,77.43
2019-05-10T04:32:42.279Z,78.00
2019-05-10T04:35:11.936Z,78.00
2019-05-10T04:37:41.565Z,77.74
2019-05-10T04:40:11.386Z,77.33
2019-05-10T04:42:40.981Z,76.00
2019-05-10T04:45:11.583Z,76.90
2019-05-10T04:47:41.162Z,76.07
2019-05-10T04:50:10.912Z,75.93
2019-05-10T04:52:40.868Z,75.20
2019-05-10T04:55:10.576Z,74.90
2019-05-10T04:57:49.718Z,75.11
2019-05-10T05:00:12.063Z,75.13
2019-05-10T05:02:47.598Z,75.71
2019-05-10T05:05:17.238Z,75.62
2019-05-10T05:07:47.139Z,75.57
2019-05-10T05:10:16.739Z,76.12
2019-05-10T05:12:46.263Z,77.81
2019-05-10T05:15:15.899Z,78.58
2019-05-10T05:17:45.498Z,79.23
2019-05-10T05:20:15.240Z,78.92
2019-05-10T05:22:44.794Z,78.78
2019-05-10T05:25:14.527Z,78.16
2019-05-10T05:27:44.048Z,78.24
2019-05-10T05:30:14.142Z,77.65
2019-05-10T05:32:44.646Z,76.47
2019-05-10T05:35:15.597Z,77.00
2019-05-10T05:37:45.368Z,78.02
2019-05-10T05:40:15.141Z,77.22
2019-05-10T05:42:44.729Z,76.15
2019-05-10T05:45:16.047Z,76.73
2019-05-10T05:47:45.565Z,77.02
2019-05-10T05:50:15.819Z,76.88
2019-05-10T05:52:45.377Z,76.29
2019-05-10T05:55:15.023Z,76.23
2019-05-10T05:57:44.987Z,76.14
2019-05-10T06:00:14.996Z,76.40
2019-05-10T06:02:46.426Z,77.73
2019-05-10T06:05:32.300Z,76.97
2019-05-10T06:07:51.992Z,78.21
2019-05-10T06:10:19.805Z,77.32
2019-05-10T06:12:50.316Z,77.87
2019-05-10T06:15:23.179Z,77.12
2019-05-10T06:17:57.123Z,77.40
2019-05-10T06:20:23.613Z,76.38
2019-05-10T06:23:05.775Z,77.14
2019-05-10T06:25:37.627Z,77.53
2019-05-10T06:27:55.812Z,76.89
2019-05-10T06:30:25.444Z,76.96
2019-05-10T06:33:00.808Z,76.31
2019-05-10T06:35:26.298Z,76.34
2019-05-10T06:37:55.959Z,76.72
2019-05-10T06:40:34.462Z,78.37
2019-05-10T06:42:56.779Z,79.98
2019-05-10T06:45:26.465Z,78.98
2019-05-10T06:47:55.982Z,79.36
2019-05-10T06:50:29.801Z,78.04
2019-05-10T06:53:00.758Z,78.33
2019-05-10T06:55:30.798Z,77.28
2019-05-10T06:58:00.924Z,77.71
2019-05-10T07:00:30.804Z,77.04
2019-05-10T07:03:00.381Z,75.71
2019-05-10T07:05:30.149Z,75.03
2019-05-10T07:08:13.943Z,74.94
2019-05-10T07:10:33.728Z,74.40
2019-05-10T07:13:03.748Z,75.21
2019-05-10T07:15:35.957Z,75.85
2019-05-10T07:18:04.933Z,78.14
2019-05-10T07:20:34.430Z,78.76
2019-05-10T07:23:06.148Z,78.49
2019-05-10T07:25:37.859Z,77.24
2019-05-10T07:28:09.281Z,79.18
2019-05-10T07:30:41.526Z,79.21
2019-05-10T07:33:11.243Z,78.58
2019-05-10T07:35:40.818Z,79.88
2019-05-10T07:38:10.611Z,78.47
2019-05-10T07:40:40.139Z,77.67
2019-05-10T07:43:09.733Z,78.38
2019-05-10T07:45:39.599Z,76.75
2019-05-10T07:48:10.452Z,74.21
2019-05-10T07:50:42.359Z,72.09
2019-05-10T07:53:16.417Z,70.47
2019-05-10T07:55:43.687Z,70.41
2019-05-10T07:58:13.341Z,69.00
2019-05-10T08:00:44.290Z,68.50
2019-05-10T08:03:17.679Z,66.25
2019-05-10T08:05:54.893Z,64.22
2019-05-10T08:08:19.225Z,61.89
2019-05-10T08:10:49.075Z,58.65
2019-05-10T08:13:23.333Z,56.92
2019-05-10T08:15:50.424Z,56.35
2019-05-10T08:18:25.189Z,54.10
2019-05-10T08:20:58.244Z,53.72
2019-05-10T08:23:27.765Z,54.34
2019-05-10T08:25:55.963Z,55.63
2019-05-10T08:28:36.062Z,56.67
2019-05-10T08:31:02.385Z,57.95
2019-05-10T08:33:32.786Z,59.57
2019-05-10T08:36:05.174Z,60.36
2019-05-10T08:38:39.820Z,60.88
2019-05-10T08:41:14.760Z,61.81
2019-05-10T08:43:42.775Z,62.21
2019-05-10T08:46:12.153Z,62.29
2019-05-10T08:48:46.565Z,62.05
2019-05-10T08:51:13.265Z,61.42
2019-05-10T08:53:47.082Z,61.32
2019-05-10T08:56:21.058Z,60.71
2019-05-10T08:58:45.474Z,60.52
2019-05-10T09:01:25.854Z,59.29
2019-05-10T09:03:47.127Z,58.55
2019-05-10T09:06:17.876Z,57.62
2019-05-10T09:08:52.820Z,57.06
2019-05-10T09:11:19.062Z,56.95
2019-05-10T09:13:48.592Z,56.50
2019-05-10T09:16:18.140Z,55.24
2019-05-10T09:18:51.206Z,54.84
2019-05-10T09:21:19.038Z,55.10
2019-05-10T09:23:52.760Z,55.85
2019-05-10T09:26:19.819Z,57.59
2019-05-10T09:28:53.456Z,58.41
2019-05-10T09:31:25.823Z,58.67
2019-05-10T09:33:55.651Z,58.43
2019-05-10T09:36:31.040Z,59.94
2019-05-10T09:38:56.477Z,61.65
2019-05-10T09:41:27.690Z,64.32
2019-05-10T09:43:57.340Z,63.42
2019-05-10T09:46:27.069Z,65.31
2019-05-10T09:49:06.269Z,65.19
2019-05-10T09:51:30.103Z,64.63
2019-05-10T09:54:00.368Z,63.05
2019-05-10T09:56:33.048Z,63.16
2019-05-10T09:59:01.496Z,63.20
2019-05-10T10:01:31.450Z,62.12
2019-05-10T10:04:02.307Z,59.47
2019-05-10T10:06:32.425Z,59.83
2019-05-10T10:09:02.018Z,59.00
2019-05-10T10:11:31.583Z,57.62
2019-05-10T10:14:02.721Z,55.70
2019-05-10T10:16:32.751Z,53.10
2019-05-10T10:19:02.255Z,52.85
2019-05-10T10:21:35.592Z,50.88
2019-05-10T10:24:12.677Z,51.10
2019-05-10T10:26:34.890Z,50.10
2019-05-10T10:29:07.119Z,51.87
2019-05-10T10:31:51.223Z,53.39
2019-05-10T10:34:14.282Z,51.97
2019-05-10T10:36:44.240Z,54.17
2019-05-10T10:39:22.957Z,58.17
2019-05-10T10:41:52.112Z,60.10
2019-05-10T10:44:21.320Z,62.76
2019-05-10T10:46:51.225Z,64.78
2019-05-10T10:49:23.223Z,66.09
2019-05-10T10:51:54.059Z,67.76
2019-05-10T10:54:28.594Z,68.62
2019-05-10T10:56:59.243Z,68.52
2019-05-10T10:59:26.235Z,68.59
2019-05-10T11:02:28.018Z,69.73
2019-05-10T11:04:28.630Z,70.68
2019-05-10T11:07:09.971Z,70.42
2019-05-10T11:09:31.145Z,70.43
2019-05-10T11:12:01.034Z,71.08
2019-05-10T11:14:32.017Z,71.07
2019-05-10T11:17:03.725Z,71.42
2019-05-10T11:19:33.217Z,71.27
2019-05-10T11:22:09.462Z,70.40
2019-05-10T11:24:34.061Z,70.29
2019-05-10T11:27:07.319Z,70.45
2019-05-10T11:29:34.875Z,69.83
2019-05-10T11:32:15.536Z,68.89
2019-05-10T11:34:38.826Z,67.30
2019-05-10T11:37:09.027Z,67.34
2019-05-10T11:39:42.009Z,66.76
2019-05-10T11:42:11.497Z,64.95
2019-05-10T11:44:50.342Z,65.19
2019-05-10T11:47:22.985Z,64.50
2019-05-10T11:49:44.168Z,66.57
2019-05-10T11:52:13.691Z,64.58
2019-05-10T11:54:43.299Z,64.10
2019-05-10T11:57:13.965Z,64.55
2019-05-10T11:59:44.250Z,64.99
2019-05-10T12:02:33.928Z,65.47
2019-05-10T12:04:47.545Z,68.25
2019-05-10T12:07:24.590Z,67.95
2019-05-10T12:12:29.523Z,66.03
2019-05-10T12:14:53.960Z,64.87
2019-05-10T12:17:24.036Z,63.21
2019-05-10T12:19:56.329Z,61.59
2019-05-10T12:22:32.010Z,60.39
2019-05-10T12:25:22.082Z,60.50
2019-05-10T12:26:16.313Z,67.22
2019-05-10T12:27:41.747Z,62.12
2019-05-10T12:30:00.706Z,62.36
2019-05-10T12:32:33.446Z,60.88
2019-05-10T12:35:03.282Z,60.48
2019-05-10T12:37:33.358Z,60.05
2019-05-10T12:40:11.769Z,59.45
2019-05-10T12:42:34.652Z,58.86
2019-05-10T12:45:06.414Z,58.23
2019-05-10T12:47:36.688Z,57.29
2019-05-10T12:50:08.481Z,55.44
2019-05-10T12:52:38.216Z,55.39
2019-05-10T12:55:08.815Z,56.37
2019-05-10T12:57:42.687Z,56.53
2019-05-10T13:00:13.063Z,57.49
2019-05-10T13:02:44.734Z,59.21
2019-05-10T13:05:15.634Z,60.94
2019-05-10T13:07:45.149Z,60.82
2019-05-10T13:10:16.090Z,61.85
2019-05-10T13:12:47.434Z,63.86
2019-05-10T13:15:17.287Z,65.05
2019-05-10T13:17:51.246Z,66.49
2019-05-10T13:20:20.447Z,66.66
2019-05-10T13:22:49.970Z,66.91
2019-05-10T13:25:19.738Z,67.41
2019-05-10T13:27:49.238Z,67.75
2019-05-10T13:30:27.581Z,68.06
2019-05-10T13:32:52.816Z,67.04
2019-05-10T13:35:22.686Z,67.17
2019-05-10T13:37:56.902Z,67.24
2019-05-10T13:40:23.556Z,67.50
2019-05-10T13:42:53.070Z,67.65
2019-05-10T13:45:22.644Z,67.62
2019-05-10T13:47:52.673Z,68.01
2019-05-10T13:50:22.339Z,66.69
2019-05-10T13:52:53.050Z,67.76
2019-05-10T13:55:22.634Z,66.06
2019-05-10T13:57:54.153Z,66.50
2019-05-10T14:00:33.154Z,64.70
2019-05-10T14:02:55.832Z,64.93
2019-05-10T14:05:25.398Z,64.91
2019-05-10T14:07:54.965Z,64.80
2019-05-10T14:10:26.910Z,63.82
2019-05-10T14:13:01.945Z,62.78
2019-05-10T14:15:27.648Z,62.01
2019-05-10T14:17:57.620Z,60.05
2019-05-10T14:20:27.829Z,59.13
2019-05-10T14:22:59.039Z,57.19
2019-05-10T14:25:35.718Z,56.02
2019-05-10T14:28:00.479Z,56.25
2019-05-10T14:30:30.210Z,55.66
2019-05-10T14:33:00.082Z,56.78
2019-05-10T14:35:29.681Z,56.87
2019-05-10T14:38:08.209Z,57.64
2019-05-10T14:40:35.809Z,58.08
2019-05-10T14:43:05.362Z,57.72
2019-05-10T14:45:35.021Z,57.49
2019-05-10T14:48:05.683Z,57.22
2019-05-10T14:50:35.781Z,56.23
2019-05-10T14:53:05.537Z,55.65
2019-05-10T14:55:36.948Z,55.32
2019-05-10T14:58:06.788Z,55.90
2019-05-10T15:00:36.643Z,57.94
2019-05-10T15:03:06.732Z,57.34
2019-05-10T15:05:36.740Z,56.27
2019-05-10T15:08:06.551Z,54.53
2019-05-10T15:10:39.464Z,53.85
2019-05-10T15:13:07.422Z,53.59
2019-05-10T15:15:38.670Z,52.44
2019-05-10T15:18:08.569Z,53.28
2019-05-10T15:20:38.211Z,53.81
2019-05-10T15:23:07.807Z,52.76
2019-05-10T15:25:37.541Z,52.94
2019-05-10T15:28:07.128Z,52.78
2019-05-10T15:30:39.257Z,53.38
2019-05-10T15:33:08.272Z,53.28
2019-05-10T15:35:37.889Z,52.49
2019-05-10T15:38:07.466Z,51.53
2019-05-10T15:40:38.584Z,51.49
2019-05-10T15:43:10.533Z,50.50
2019-05-10T15:45:40.000Z,50.63
2019-05-10T15:48:09.611Z,51.07
2019-05-10T15:50:41.099Z,51.07
2019-05-10T15:53:10.561Z,51.04
2019-05-10T15:55:40.158Z,52.31
2019-05-10T15:58:09.746Z,52.49
2019-05-10T16:00:41.651Z,51.62
2019-05-10T16:03:10.632Z,52.06
2019-05-10T16:05:44.197Z,51.86
2019-05-10T16:08:13.618Z,51.42
2019-05-10T16:10:43.183Z,51.12
2019-05-10T16:13:14.627Z,50.92
2019-05-10T16:15:43.948Z,50.91
2019-05-10T16:18:13.568Z,50.30
2019-05-10T16:20:43.472Z,49.56
2019-05-10T16:23:13.029Z,49.12
2019-05-10T16:25:47.978Z,47.93
2019-05-10T16:28:15.351Z,48.24
2019-05-10T16:30:47.017Z,48.24
2019-05-10T16:33:18.444Z,48.80
2019-05-10T16:35:49.713Z,48.22
2019-05-10T16:38:19.364Z,48.48
2019-05-10T16:40:57.561Z,48.15
2019-05-10T16:43:24.575Z,48.37
2019-05-10T16:45:53.420Z,49.23
2019-05-10T16:48:23.461Z,49.13
2019-05-10T16:50:55.907Z,49.08
2019-05-10T16:53:25.448Z,48.70
2019-05-10T16:55:55.021Z,47.60
2019-05-10T16:58:24.545Z,48.34
2019-05-10T17:00:54.182Z,48.82
2019-05-10T17:03:23.823Z,49.09
2019-05-10T17:05:58.379Z,49.62
2019-05-10T17:08:25.123Z,50.14
2019-05-10T17:10:55.029Z,50.20
2019-05-10T17:13:24.635Z,50.23
2019-05-10T17:15:55.742Z,50.40
2019-05-10T17:18:25.316Z,50.69
2019-05-10T17:20:55.020Z,49.74
2019-05-10T17:23:25.008Z,49.99
2019-05-10T17:25:56.061Z,50.06
2019-05-10T17:28:29.695Z,50.04
2019-05-10T17:31:00.049Z,49.54
2019-05-10T17:33:28.286Z,49.61
2019-05-10T17:36:07.916Z,49.48
2019-05-10T17:38:31.752Z,48.75
2019-05-10T17:41:00.666Z,48.96
2019-05-10T17:43:31.682Z,48.58
2019-05-10T17:46:01.486Z,48.60
2019-05-10T17:48:31.083Z,48.97
2019-05-10T17:51:00.602Z,48.73
2019-05-10T17:53:30.435Z,49.07
2019-05-10T17:56:02.997Z,50.04
2019-05-10T17:58:33.971Z,49.46
2019-05-10T18:01:05.151Z,49.45
2019-05-10T18:03:34.741Z,50.47
2019-05-10T18:06:05.526Z,50.78
2019-05-10T18:08:35.845Z,50.42
2019-05-10T18:11:06.255Z,50.48
2019-05-10T18:13:40.830Z,49.96
2019-05-10T18:16:10.954Z,49.93
2019-05-10T18:18:46.283Z,50.52
2019-05-10T18:21:16.130Z,49.94
2019-05-10T18:23:43.173Z,50.36
2019-05-10T18:26:12.752Z,50.35
2019-05-10T18:28:42.403Z,50.71
2019-05-10T18:31:12.513Z,51.35
2019-05-10T18:33:44.798Z,51.36
2019-05-10T18:36:13.314Z,51.21
2019-05-10T18:38:42.866Z,51.42
2019-05-10T18:41:12.423Z,51.12
2019-05-10T18:43:42.895Z,51.75
2019-05-10T18:46:13.887Z,52.54
2019-05-10T18:48:43.701Z,52.52
2019-05-10T18:51:18.011Z,53.16
2019-05-10T18:53:44.670Z,52.70
2019-05-10T18:56:14.280Z,53.31
2019-05-10T18:58:43.804Z,53.16
2019-05-10T19:01:13.429Z,53.33
2019-05-10T19:03:43.146Z,53.93
2019-05-10T19:06:13.295Z,54.27
2019-05-10T19:08:44.069Z,54.50
2019-05-10T19:11:14.364Z,54.83
2019-05-10T19:13:48.028Z,55.08
2019-05-10T19:16:16.435Z,55.37
2019-05-10T19:18:46.819Z,55.54
2019-05-10T19:21:16.637Z,55.36
2019-05-10T19:23:52.285Z,56.13
2019-05-10T19:26:23.788Z,56.14
2019-05-10T19:28:50.146Z,55.80
2019-05-10T19:31:19.840Z,56.55
2019-05-10T19:33:49.431Z,56.71
2019-05-10T19:36:18.947Z,56.47
2019-05-10T19:38:48.610Z,56.88
2019-05-10T19:41:20.240Z,57.28
2019-05-10T19:43:50.112Z,57.41
2019-05-10T19:46:20.020Z,57.43
2019-05-10T19:48:55.019Z,57.49
2019-05-10T19:51:24.694Z,57.63
2019-05-10T19:53:57.634Z,58.03
2019-05-10T19:56:30.230Z,58.33
2019-05-10T19:58:58.908Z,58.51
2019-05-10T20:01:28.557Z,57.89
2019-05-10T20:03:58.237Z,57.90
2019-05-10T20:06:27.825Z,58.97
2019-05-10T20:08:57.448Z,59.22
2019-05-10T20:11:27.053Z,58.98
2019-05-10T20:13:56.618Z,58.51
2019-05-10T20:16:26.289Z,58.83
2019-05-10T20:18:55.924Z,58.94
2019-05-10T20:21:25.546Z,59.55
2019-05-10T20:23:55.326Z,59.24
2019-05-10T20:26:25.261Z,59.27
2019-05-10T20:28:54.764Z,59.33
2019-05-10T20:31:24.453Z,59.65
2019-05-10T20:33:54.086Z,60.28
2019-05-10T20:36:23.593Z,60.55
2019-05-10T20:38:53.243Z,61.04
2019-05-10T20:41:22.947Z,61.59
2019-05-10T20:43:52.652Z,61.63
2019-05-10T20:46:22.363Z,62.16
2019-05-10T20:48:52.153Z,62.49
2019-05-10T20:51:21.757Z,62.82
2019-05-10T20:53:51.424Z,64.22
2019-05-10T20:56:21.144Z,64.81
2019-05-10T20:58:50.702Z,65.09
2019-05-10T21:01:20.789Z,65.30
2019-05-10T21:03:50.511Z,65.60
2019-05-10T21:06:20.119Z,65.56
2019-05-10T21:08:50.267Z,65.63
2019-05-10T21:11:19.937Z,65.75
2019-05-10T21:13:49.749Z,66.06
2019-05-10T21:16:19.423Z,65.99
2019-05-10T21:18:48.939Z,66.34
2019-05-10T21:21:38.974Z,66.83
2019-05-10T21:24:08.745Z,67.23
2019-05-10T21:26:38.309Z,67.12
2019-05-10T21:29:07.885Z,67.54
2019-05-10T21:31:37.390Z,67.60
2019-05-10T21:34:09.574Z,68.07
2019-05-10T21:36:38.213Z,68.36
2019-05-10T21:39:07.971Z,68.62
2019-05-10T21:41:37.518Z,68.48
2019-05-10T21:44:10.027Z,69.16
2019-05-10T21:46:40.167Z,69.30
2019-05-10T21:49:09.841Z,69.75
2019-05-10T21:51:40.495Z,69.95
2019-05-10T21:54:10.102Z,70.60
2019-05-10T21:56:39.641Z,71.19
2019-05-10T21:59:12.095Z,70.53
2019-05-10T22:01:41.599Z,70.64
2019-05-10T22:04:11.191Z,70.38
2019-05-10T22:06:41.198Z,70.75
2019-05-10T22:09:11.844Z,70.88
2019-05-10T22:11:41.497Z,70.73
2019-05-10T22:14:11.049Z,71.38
2019-05-10T22:16:40.671Z,71.60
2019-05-10T22:19:10.806Z,71.54
2019-05-10T22:21:43.497Z,72.30
2019-05-10T22:24:13.637Z,71.86
2019-05-10T22:26:43.149Z,71.82
2019-05-10T22:29:12.944Z,71.47
2019-05-10T22:31:42.512Z,71.18
2019-05-10T22:34:12.063Z,71.69
2019-05-10T22:36:41.603Z,71.60
2019-05-10T22:39:11.122Z,71.44
2019-05-10T22:41:40.807Z,71.46
2019-05-10T22:44:13.808Z,71.98
2019-05-10T22:46:43.428Z,72.03
2019-05-10T22:49:13.014Z,71.95
2019-05-10T22:51:42.623Z,71.68
2019-05-10T22:54:13.338Z,72.09
2019-05-10T22:56:42.893Z,72.42
2019-05-10T22:59:12.526Z,72.83
2019-05-10T23:01:42.086Z,73.35
2019-05-10T23:04:11.609Z,74.23
2019-05-10T23:06:42.128Z,74.36
2019-05-10T23:09:24.248Z,73.31
2019-05-10T23:11:42.958Z,72.60
2019-05-10T23:14:12.545Z,73.61
2019-05-10T23:16:42.051Z,73.17
2019-05-10T23:19:11.633Z,73.12
2019-05-10T23:21:41.168Z,72.93
2019-05-10T23:24:12.316Z,73.47
2019-05-10T23:26:42.017Z,73.85
2019-05-10T23:29:11.903Z,74.72
2019-05-10T23:31:41.503Z,74.77
2019-05-10T23:34:11.194Z,74.54
2019-05-10T23:36:41.280Z,74.30
2019-05-10T23:39:10.807Z,73.96
2019-05-10T23:41:40.346Z,74.36
2019-05-10T23:44:09.911Z,73.88
2019-05-10T23:46:39.444Z,73.82
2019-05-10T23:49:09.295Z,73.92
2019-05-10T23:51:39.020Z,73.96
2019-05-10T23:54:08.551Z,74.33
2019-05-10T23:56:38.131Z,74.55
2019-05-10T23:59:09.288Z,74.88
